Larkspur, CO

10:44 PM MDT on August 29, 2014 (GMT -0600)
Bernhardt's Barnyard, Spruce Mtn Rd. | Change Station
CLOSE
Current Station
Personal Weather Station
Location: Larkspur, CO
Elevation: 6776 ft
Nearby Weather Stations

Elev 6776 ft 39.21 °N, 104.88 °W | Updated 4 minutes ago

Partly Cloudy
Partly Cloudy
57.2 °F
Feels Like 57.2 °F
N
2.2
Wind Variable Wind from SSE
Gusts 8.3 mph

Today
High -- | Low -- °F
--% Chance of Precip.
Yesterday
High -- | Low -- °F
Precip. -- in
6:25 AM 7:34 PM
Waxing Crescent, 19% visible
Pressure 30.27 in
Visibility 10.0 miles
Clouds Clear
Dew Point 45 °F
Humidity 63%
Rainfall 0.00 in
Snow Depth Not available.
UV 0 out of 12
Pollen 10.00 out of 12
Ozone Good
PM2.5 Good
Flu Activity Not available.
METAR KMNH 300433Z AUTO 17006KT 10SM CLR 10/06 A3027 RMK AO2 LTG DSNT NW

More Conditions Fewer Conditions

Pressure 30.27 in
Visibility 10.0 miles
Clouds Clear
Dew Point 45 °F
Humidity 63%
Rainfall 0.00 in
Snow Depth Not available.
UV 0 out of 12
Pollen 10.00 out of 12
Ozone Good
PM2.5 Good
Flu Activity Not available.
METAR KMNH 300433Z AUTO 17006KT 10SM CLR 10/06 A3027 RMK AO2 LTG DSNT NW

More Conditions Fewer Conditions

10-Day Weather Forecast

Almanac

Astronomy

Aug. 29, 2014 Rise Set
Actual Time 6:25 AM MDT 7:34 PM MDT
Civil Twilight 5:57 AM MDT 8:02 PM MDT
Nautical Twilight 5:24 AM MDT 8:35 PM MDT
Astronomical Twilight 4:50 AM MDT 9:09 PM MDT
Moon 10:15 AM MDT (8/29) 9:35 PM MDT (8/29)
Length of Visible Light 14h 04m
Length of Day
13h 09m
Tomorrow will be 2m 25s shorter.
Waxing Crescent, 19% of the Moon is Illuminated
Aug 30
Waxing Crescent
Sep 2
First Quarter
Sep 8
Full
Sep 15
Last Quarter
Sep 24
New

Yesterday's Extremes

State Highs State Lows

Community

WunderPhotos

Upload Photos

1,748,454 photos uploaded!

Nearby

Air Quality

  Air Quality AQ Index Pollutant
Yesterday Good
OZONE
Current Good
OZONE
Current Good
PM2.5
Friday Good
PM2.5
Friday Good
OZONE
Saturday Good
PM2.5
Saturday Good
OZONE

Snow Depth

Station Depth Elevation
Glen Cove 0 in 11460 ft
Echo Lake 0 in 10600 ft
Jackwhacker Gulch 0 in 10960 ft
Michigan Creek 0 in 10600 ft
Grizzly Peak 0 in 11100 ft

Earthquake Activity

City Distance Mag. Time & Date
No recent earthquake activity has been reported nearby.
Minimum magnitude displayed is 2.5.

Coastal Water Temperatures

Place Temperature
No Stations Reporting

Nearby Weather Stations